Time;durP1;ratioP1;P1;durP2;ratioP2;P2;SDS_P1;SDS_P2;PMS_P1;PMS_P2;Temp;Humidity;BMP_temperature;BMP_pressure;BME280_temperature;BME280_humidity;BME280_pressure;Samples;Min_cycle;Max_cycle;Signal;HPM_P1;HPM_P2
2023/04/23 00:02:01;;;;;;;;;;;;;;;22.43;41.14;99956.22;7258343;19;158264;-84
2023/04/23 00:04:32;;;;;;;;;;;;;;;22.43;41.34;99954.22;7266908;19;153847;-84
2023/04/23 00:06:59;;;;;;;;;;;;;;;22.41;41.58;99958.53;7259992;19;153736;-83
2023/04/23 00:09:28;;;;;;;;;;;;;;;22.40;41.42;99957.72;7259764;19;152635;-84
2023/04/23 00:11:56;;;;;;;;;;;;;;;22.40;41.49;99957.72;7262468;19;154213;-83
2023/04/23 00:14:24;;;;;;;;;;;;;;;22.38;41.33;99953.63;7254695;19;155772;-84
2023/04/23 00:16:51;;;;;;;;;;;;;;;22.39;41.65;99947.66;7263006;19;153778;-84
2023/04/23 00:19:19;;;;;;;;;;;;;;;22.37;42.02;99943.50;7258854;19;152950;-84
2023/04/23 00:21:47;;;;;;;;;;;;;;;22.34;41.95;99945.03;7261382;19;153805;-84
2023/04/23 00:24:14;;;;;;;;;;;;;;;22.34;42.36;99945.03;7261940;19;155223;-84
2023/04/23 00:26:41;;;;;;;;;;;;;;;22.33;42.37;99939.75;7270392;19;153683;-84
2023/04/23 00:29:08;;;;;;;;;;;;;;;22.32;42.72;99943.72;7257761;19;154120;-84
2023/04/23 00:31:35;;;;;;;;;;;;;;;22.27;42.79;99936.31;7262367;19;154450;-83
2023/04/23 00:34:02;;;;;;;;;;;;;;;22.26;42.43;99945.91;7259516;19;154886;-84
2023/04/23 00:36:31;;;;;;;;;;;;;;;22.24;42.47;99939.84;7259633;19;153364;-84
2023/04/23 00:38:58;;;;;;;;;;;;;;;22.19;42.55;99931.59;7260798;19;153585;-84
2023/04/23 00:41:27;;;;;;;;;;;;;;;22.17;43.15;99939.53;7261978;19;153709;-83
2023/04/23 00:43:56;;;;;;;;;;;;;;;22.15;42.72;99939.09;7262268;19;153499;-84
2023/04/23 00:46:24;;;;;;;;;;;;;;;22.11;43.05;99940.94;7261937;19;154005;-84
2023/04/23 00:48:52;;;;;;;;;;;;;;;22.10;43.14;99940.13;7269766;19;154783;-84
2023/04/23 00:51:20;;;;;;;;;;;;;;;22.08;43.16;99941.59;7261101;19;154108;-84
2023/04/23 00:53:47;;;;;;;;;;;;;;;22.03;43.01;99933.41;7260498;19;153267;-84
2023/04/23 00:56:16;;;;;;;;;;;;;;;22.00;43.30;99931.25;7261847;19;153572;-84
2023/04/23 00:58:44;;;;;;;;;;;;;;;21.97;43.24;99927.16;7264274;19;153672;-84
2023/04/23 01:01:11;;;;;;;;;;;;;;;21.95;43.66;99925.84;7259341;19;154698;-84
2023/04/23 01:03:40;;;;;;;;;;;;;;;21.91;43.65;99908.78;7263564;19;153392;-83
2023/04/23 01:06:07;;;;;;;;;;;;;;;21.92;43.39;99920.88;7261390;19;154038;-83
2023/04/23 01:08:35;;;;;;;;;;;;;;;21.88;43.44;99909.50;7259771;19;154762;-83
2023/04/23 01:11:02;;;;;;;;;;;;;;;21.88;43.79;99909.50;7267539;19;153352;-83
2023/04/23 01:13:32;;;;;;;;;;;;;;;21.88;43.37;99906.69;7259500;19;154537;-84
2023/04/23 01:15:59;;;;;;;;;;;;;;;21.88;43.84;99903.88;7255787;19;153575;-83
2023/04/23 01:18:26;;;;;;;;;;;;;;;21.87;43.60;99901.38;7259638;19;155290;-84
2023/04/23 01:20:55;;;;;;;;;;;;;;;21.82;43.56;99902.41;7257672;19;154329;-83
2023/04/23 01:23:26;;;;;;;;;;;;;;;21.87;43.45;99893.78;7259012;19;153281;-84
2023/04/23 01:25:54;;;;;;;;;;;;;;;21.80;43.79;99895.50;7260310;19;154755;-84
2023/04/23 01:28:21;;;;;;;;;;;;;;;21.81;43.90;99891.50;7262852;19;154532;-84
2023/04/23 01:30:52;;;;;;;;;;;;;;;21.80;43.49;99901.13;7264295;19;153785;-83
2023/04/23 01:33:20;;;;;;;;;;;;;;;21.76;43.88;99903.78;7259467;19;153581;-82
2023/04/23 01:35:48;;;;;;;;;;;;;;;21.78;43.84;99898.66;7259727;19;155294;-83
2023/04/23 01:38:16;;;;;;;;;;;;;;;21.83;43.28;99894.81;7268013;19;154863;-84
2023/04/23 01:40:44;;;;;;;;;;;;;;;21.77;43.91;99899.81;7268095;19;156352;-84
2023/04/23 01:43:11;;;;;;;;;;;;;;;21.77;44.06;99898.97;7264611;19;153332;-84
2023/04/23 01:45:40;;;;;;;;;;;;;;;21.76;43.81;99898.16;7261840;19;153850;-84
2023/04/23 01:48:07;;;;;;;;;;;;;;;21.76;43.77;99894.53;7260053;19;155972;-85
2023/04/23 01:50:35;;;;;;;;;;;;;;;21.73;43.67;99894.06;7265991;19;153195;-85
2023/04/23 01:53:02;;;;;;;;;;;;;;;21.72;44.20;99889.59;7270953;19;154956;-84
2023/04/23 01:55:30;;;;;;;;;;;;;;;21.72;43.81;99889.59;7264303;19;153717;-85
2023/04/23 01:57:57;;;;;;;;;;;;;;;21.70;44.05;99891.09;7265237;19;152484;-84
2023/04/23 02:00:24;;;;;;;;;;;;;;;21.66;44.02;99892.97;7259026;19;156131;-85
2023/04/23 02:02:52;;;;;;;;;;;;;;;21.66;44.30;99881.72;7265815;19;153450;-84
2023/04/23 02:05:24;;;;;;;;;;;;;;;21.63;44.40;99877.59;7269026;19;154086;-85
2023/04/23 02:07:51;;;;;;;;;;;;;;;21.62;44.26;99880.75;7267092;19;155693;-84
2023/04/23 02:10:21;;;;;;;;;;;;;;;21.60;43.97;99872.66;7270862;19;152157;-83
2023/04/23 02:12:49;;;;;;;;;;;;;;;21.57;44.52;99881.78;7272140;19;154135;-83
2023/04/23 02:15:16;;;;;;;;;;;;;;;21.55;44.30;99870.03;7276488;19;155535;-84
2023/04/23 02:17:44;;;;;;;;;;;;;;;21.56;43.96;99868.88;7270725;19;155454;-84
2023/04/23 02:20:11;;;;;;;;;;;;;;;21.56;44.09;99870.88;7265450;19;154620;-85
2023/04/23 02:22:39;;;;;;;;;;;;;;;21.54;44.05;99864.75;7267383;19;154304;-85
2023/04/23 02:25:07;;;;;;;;;;;;;;;21.52;44.50;99859.50;7267961;19;151929;-84
2023/04/23 02:27:34;;;;;;;;;;;;;;;21.50;44.58;99860.97;7266856;19;156369;-85
2023/04/23 02:30:02;;;;;;;;;;;;;;;21.50;44.42;99859.00;7267487;19;153065;-85
2023/04/23 02:32:29;;;;;;;;;;;;;;;21.47;44.44;99856.06;7270365;19;154642;-83
2023/04/23 02:35:00;;;;;;;;;;;;;;;21.45;44.45;99861.19;7266380;19;154123;-85
2023/04/23 02:37:28;;;;;;;;;;;;;;;21.43;44.61;99869.16;7272900;19;153624;-83
2023/04/23 02:39:55;;;;;;;;;;;;;;;21.44;44.21;99856.75;7266668;19;154537;-84
2023/04/23 02:42:22;;;;;;;;;;;;;;;21.42;44.61;99861.88;7267041;19;153491;-84
2023/04/23 02:44:49;;;;;;;;;;;;;;;21.39;44.24;99857.75;7265561;19;153922;-85
2023/04/23 02:47:16;;;;;;;;;;;;;;;21.39;44.50;99854.13;7269129;19;155514;-85
2023/04/23 02:49:43;;;;;;;;;;;;;;;21.40;44.48;99859.38;7272836;19;153158;-85
2023/04/23 02:52:10;;;;;;;;;;;;;;;21.36;44.73;99861.25;7276087;19;153186;-85
2023/04/23 02:54:38;;;;;;;;;;;;;;;21.36;44.44;99857.59;7273458;19;156878;-84
2023/04/23 02:57:05;;;;;;;;;;;;;;;21.34;44.58;99855.16;7273024;19;152349;-84
2023/04/23 02:59:33;;;;;;;;;;;;;;;21.34;44.72;99857.13;7275505;19;155197;-85
2023/04/23 03:02:00;;;;;;;;;;;;;;;21.30;44.73;99854.97;7270690;19;153089;-84
2023/04/23 03:04:28;;;;;;;;;;;;;;;21.30;44.69;99860.59;7270966;19;154943;-85
2023/04/23 03:06:55;;;;;;;;;;;;;;;21.28;44.96;99862.13;7270711;19;156392;-85
2023/04/23 03:09:22;;;;;;;;;;;;;;;21.27;44.56;99868.91;7271210;19;153213;-85
2023/04/23 03:11:50;;;;;;;;;;;;;;;21.26;44.84;99861.63;7270715;19;152734;-84
2023/04/23 03:14:17;;;;;;;;;;;;;;;21.27;44.90;99857.66;7267940;19;154604;-85
2023/04/23 03:16:44;;;;;;;;;;;;;;;21.25;44.77;99862.81;7267711;19;154238;-84
2023/04/23 03:19:12;;;;;;;;;;;;;;;21.21;44.83;99857.03;7270781;19;156216;-84
2023/04/23 03:21:39;;;;;;;;;;;;;;;21.21;44.51;99859.03;7277912;19;152847;-85
2023/04/23 03:24:06;;;;;;;;;;;;;;;21.21;44.57;99859.03;7270069;19;153336;-85
2023/04/23 03:26:34;;;;;;;;;;;;;;;21.19;44.64;99859.38;7268882;19;155545;-85
2023/04/23 03:29:01;;;;;;;;;;;;;;;21.17;44.85;99861.69;7272021;19;152880;-85
2023/04/23 03:31:28;;;;;;;;;;;;;;;21.16;44.50;99856.41;7271808;19;153248;-84
2023/04/23 03:33:55;;;;;;;;;;;;;;;21.15;44.82;99851.97;7268867;19;154268;-85
2023/04/23 03:36:23;;;;;;;;;;;;;;;21.13;44.69;99854.28;7274507;19;152401;-85
2023/04/23 03:38:49;;;;;;;;;;;;;;;21.15;44.77;99866.00;7270817;19;153515;-84
2023/04/23 03:41:17;;;;;;;;;;;;;;;21.12;44.64;99856.22;7277621;19;155418;-84
2023/04/23 03:43:44;;;;;;;;;;;;;;;21.11;44.95;99857.41;7270169;19;152144;-84
2023/04/23 03:46:11;;;;;;;;;;;;;;;21.10;44.73;99855.75;7270361;19;153906;-84
2023/04/23 03:48:39;;;;;;;;;;;;;;;21.11;44.82;99865.84;7274989;19;154288;-84
2023/04/23 03:51:06;;;;;;;;;;;;;;;21.06;44.81;99851.97;7279221;19;153168;-85
2023/04/23 03:53:35;;;;;;;;;;;;;;;21.06;44.76;99851.97;7278070;19;153226;-84
2023/04/23 03:56:02;;;;;;;;;;;;;;;21.04;44.82;99856.28;7278788;19;152974;-84
2023/04/23 03:58:32;;;;;;;;;;;;;;;21.02;45.08;99851.00;7277451;19;153571;-85
2023/04/23 04:00:59;;;;;;;;;;;;;;;21.03;45.08;99849.81;7273347;19;153933;-84
2023/04/23 04:03:26;;;;;;;;;;;;;;;21.02;45.03;99850.19;7285734;19;151744;-83
2023/04/23 04:05:56;;;;;;;;;;;;;;;21.01;45.01;99840.09;7288274;19;155388;-84
2023/04/23 04:08:25;;;;;;;;;;;;;;;21.01;44.81;99838.13;7295412;19;152805;-83
2023/04/23 04:10:55;;;;;;;;;;;;;;;20.97;45.09;99842.78;7291912;19;153999;-85
2023/04/23 04:13:23;;;;;;;;;;;;;;;21.01;45.19;99842.91;7292610;19;153121;-85
2023/04/23 04:15:50;;;;;;;;;;;;;;;20.98;44.76;99833.19;7286781;19;153413;-82
2023/04/23 04:18:17;;;;;;;;;;;;;;;20.98;44.68;99838.81;7287572;19;155471;-84
2023/04/23 04:20:44;;;;;;;;;;;;;;;20.96;44.79;99838.31;7290219;19;154611;-85
2023/04/23 04:23:12;;;;;;;;;;;;;;;20.94;44.97;99837.03;7294411;19;152033;-84
2023/04/23 04:25:39;;;;;;;;;;;;;;;20.95;45.03;99835.84;7300141;19;153185;-84
2023/04/23 04:28:08;;;;;;;;;;;;;;;20.92;45.17;99836.53;7293429;19;152294;-84
2023/04/23 04:30:35;;;;;;;;;;;;;;;20.94;45.34;99849.03;7291747;19;154264;-83
2023/04/23 04:33:03;;;;;;;;;;;;;;;20.90;45.46;99838.81;7295808;19;156103;-84
2023/04/23 04:35:30;;;;;;;;;;;;;;;20.91;45.34;99843.28;7295386;19;152250;-82
2023/04/23 04:37:58;;;;;;;;;;;;;;;20.90;45.01;99839.66;7290636;19;154725;-82
2023/04/23 04:40:27;;;;;;;;;;;;;;;20.90;45.32;99834.03;7291336;19;152324;-85
2023/04/23 04:42:54;;;;;;;;;;;;;;;20.89;45.09;99829.59;7293411;19;153550;-84
2023/04/23 04:45:22;;;;;;;;;;;;;;;20.88;45.29;99836.38;7290352;19;154017;-84
2023/04/23 04:47:49;;;;;;;;;;;;;;;20.87;45.30;99826.31;7300685;19;153333;-84
2023/04/23 04:50:17;;;;;;;;;;;;;;;20.85;45.19;99825.81;7292121;19;153263;-83
2023/04/23 04:52:44;;;;;;;;;;;;;;;20.84;45.35;99830.63;7284572;19;154228;-84
2023/04/23 04:55:12;;;;;;;;;;;;;;;20.83;45.30;99831.78;7279547;19;152484;-85
2023/04/23 04:57:39;;;;;;;;;;;;;;;20.83;45.72;99830.94;7282714;19;152182;-82
2023/04/23 05:00:21;;;;;;;;;;;;;;;20.81;45.41;99831.28;7277745;19;155435;-82
2023/04/23 05:02:49;;;;;;;;;;;;;;;20.79;45.26;99833.63;7283067;19;154154;-84
2023/04/23 05:05:16;;;;;;;;;;;;;;;20.79;45.53;99839.22;7276407;19;154371;-84
2023/04/23 05:07:44;;;;;;;;;;;;;;;20.78;45.54;99839.56;7275520;19;155896;-83
2023/04/23 05:10:13;;;;;;;;;;;;;;;20.76;45.24;99828.66;7287756;19;153479;-85
2023/04/23 05:12:44;;;;;;;;;;;;;;;20.78;45.26;99834.78;7279919;19;152598;-85
2023/04/23 05:15:12;;;;;;;;;;;;;;;20.76;45.28;99831.47;7279116;19;153059;-85
2023/04/23 05:17:40;;;;;;;;;;;;;;;20.73;45.47;99823.72;7280642;19;153558;-84
2023/04/23 05:20:09;;;;;;;;;;;;;;;20.73;45.58;99828.50;7276443;19;154687;-85
2023/04/23 05:22:37;;;;;;;;;;;;;;;20.71;45.04;99826.06;7278689;19;152991;-85
2023/04/23 05:25:04;;;;;;;;;;;;;;;20.70;45.66;99838.44;7273450;19;155928;-84
2023/04/23 05:27:32;;;;;;;;;;;;;;;20.68;45.23;99829.53;7275948;19;154671;-84
2023/04/23 05:30:01;;;;;;;;;;;;;;;20.67;45.54;99827.88;7281103;19;153490;-84
2023/04/23 05:32:28;;;;;;;;;;;;;;;20.67;45.52;99830.69;7274463;19;153560;-85
2023/04/23 05:34:56;;;;;;;;;;;;;;;20.69;45.36;99828.38;7275074;19;153490;-84
2023/04/23 05:37:23;;;;;;;;;;;;;;;20.68;45.38;99826.72;7272021;19;153268;-84
2023/04/23 05:39:52;;;;;;;;;;;;;;;20.65;45.70;99818.97;7273011;19;152700;-84
2023/04/23 05:42:23;;;;;;;;;;;;;;;20.64;45.68;99817.31;7271090;19;153786;-83
2023/04/23 05:44:51;;;;;;;;;;;;;;;20.64;45.44;99813.69;7268994;19;154056;-84
2023/04/23 05:47:20;;;;;;;;;;;;;;;20.63;45.65;99812.03;7272165;19;153689;-84
2023/04/23 05:49:48;;;;;;;;;;;;;;;20.61;45.48;99818.00;7272257;19;153363;-84
2023/04/23 05:52:17;;;;;;;;;;;;;;;20.60;45.72;99821.16;7275437;19;153793;-83
2023/04/23 05:54:44;;;;;;;;;;;;;;;20.57;45.69;99814.25;7269711;19;154056;-83
2023/04/23 05:57:11;;;;;;;;;;;;;;;20.57;45.82;99810.59;7270332;19;156147;-84
2023/04/23 05:59:39;;;;;;;;;;;;;;;20.55;45.50;99819.34;7270022;19;154565;-84
2023/04/23 06:02:06;;;;;;;;;;;;;;;20.55;45.58;99821.31;7270622;19;152943;-84
2023/04/23 06:04:34;;;;;;;;;;;;;;;20.52;45.64;99828.44;7270626;19;153760;-84
2023/04/23 06:07:03;;;;;;;;;;;;;;;20.53;45.31;99826.47;7273492;19;153857;-84
2023/04/23 06:09:30;;;;;;;;;;;;;;;20.53;45.39;99832.91;7270542;19;153086;-83
2023/04/23 06:11:58;;;;;;;;;;;;;;;20.53;45.74;99826.47;7271619;19;153278;-84
2023/04/23 06:14:25;;;;;;;;;;;;;;;20.52;45.93;99833.22;7277112;19;153540;-84
2023/04/23 06:16:53;;;;;;;;;;;;;;;20.50;45.87;99833.56;7272257;19;153422;-83
2023/04/23 06:19:23;;;;;;;;;;;;;;;20.50;45.89;99830.75;7268729;19;154044;-83
2023/04/23 06:21:51;;;;;;;;;;;;;;;20.48;45.72;99826.66;7270180;19;154235;-84
2023/04/23 06:24:18;;;;;;;;;;;;;;;20.48;45.77;99835.06;7268372;19;154681;-84
2023/04/23 06:26:46;;;;;;;;;;;;;;;20.46;45.89;99829.78;7270269;19;152650;-84
2023/04/23 06:29:14;;;;;;;;;;;;;;;20.49;45.66;99831.09;7267359;19;153375;-84
2023/04/23 06:31:42;;;;;;;;;;;;;;;20.47;45.92;99830.59;7267051;19;153784;-85
2023/04/23 06:34:14;;;;;;;;;;;;;;;20.45;45.63;99832.91;7266618;19;153841;-83
2023/04/23 06:36:42;;;;;;;;;;;;;;;20.46;45.63;99837.38;7271922;19;152121;-83
2023/04/23 06:39:11;;;;;;;;;;;;;;;20.45;45.98;99835.72;7265728;19;152728;-84
2023/04/23 06:41:38;;;;;;;;;;;;;;;20.42;45.91;99835.25;7264931;19;152878;-86
2023/04/23 06:44:05;;;;;;;;;;;;;;;20.44;45.91;99831.28;7267632;19;151889;-84
2023/04/23 06:46:32;;;;;;;;;;;;;;;20.42;45.79;99840.84;7265430;19;154410;-84
2023/04/23 06:49:03;;;;;;;;;;;;;;;20.43;45.62;99844.47;7269695;19;153176;-84
2023/04/23 06:51:32;;;;;;;;;;;;;;;20.42;45.68;99835.25;7273301;19;152986;-84
2023/04/23 06:53:59;;;;;;;;;;;;;;;20.40;45.87;99837.53;7272756;19;153126;-83
2023/04/23 06:56:27;;;;;;;;;;;;;;;20.38;45.57;99831.47;7272282;19;152723;-84
2023/04/23 06:58:55;;;;;;;;;;;;;;;20.42;45.53;99831.59;7280315;19;154719;-84
2023/04/23 07:01:23;;;;;;;;;;;;;;;20.44;45.57;99829.31;7270442;19;153301;-84
2023/04/23 07:03:53;;;;;;;;;;;;;;;20.42;45.88;99829.63;7273382;19;152492;-84
2023/04/23 07:06:21;;;;;;;;;;;;;;;20.42;45.67;99823.19;7271403;19;153966;-83
2023/04/23 07:08:49;;;;;;;;;;;;;;;20.44;45.64;99831.28;7268773;19;152947;-83
2023/04/23 07:11:24;;;;;;;;;;;;;;;20.41;46.13;99832.75;7267421;19;154912;-85
2023/04/23 07:14:02;;;;;;;;;;;;;;;20.40;45.77;99825.50;7269916;19;154166;-84
2023/04/23 07:16:32;;;;;;;;;;;;;;;20.39;46.13;99835.09;7269785;19;153032;-84
2023/04/23 07:19:07;;;;;;;;;;;;;;;20.37;46.10;99826.19;7272028;19;154349;-84
2023/04/23 07:21:35;;;;;;;;;;;;;;;20.37;45.72;99829.81;7277746;19;153693;-85
2023/04/23 07:24:05;;;;;;;;;;;;;;;20.36;45.99;99828.16;7271143;19;154295;-85
2023/04/23 07:26:34;;;;;;;;;;;;;;;20.36;46.00;99835.75;7273132;19;153247;-83
2023/04/23 07:29:05;;;;;;;;;;;;;;;20.34;46.01;99833.28;7273128;19;154410;-84
2023/04/23 07:31:37;;;;;;;;;;;;;;;20.34;46.16;99827.69;7273204;19;153489;-84
2023/04/23 07:34:11;;;;;;;;;;;;;;;20.34;46.04;99829.66;7266797;19;153835;-83
2023/04/23 07:36:39;;;;;;;;;;;;;;;20.34;46.09;99829.66;7273328;19;153130;-83
2023/04/23 07:39:07;;;;;;;;;;;;;;;20.34;46.06;99833.28;7269411;19;154476;-83
2023/04/23 07:41:40;;;;;;;;;;;;;;;20.34;45.99;99830.50;7274757;19;156023;-82
2023/04/23 07:44:09;;;;;;;;;;;;;;;20.33;45.76;99825.19;7267001;19;154978;-84
2023/04/23 07:46:39;;;;;;;;;;;;;;;20.32;46.09;99823.53;7264700;19;154418;-84
2023/04/23 07:49:10;;;;;;;;;;;;;;;20.31;45.69;99825.53;7269051;19;152951;-83
2023/04/23 07:51:43;;;;;;;;;;;;;;;20.30;45.83;99826.72;7266879;19;155143;-84
2023/04/23 07:54:11;;;;;;;;;;;;;;;20.31;45.68;99828.34;7266943;19;152678;-85
2023/04/23 07:56:41;;;;;;;;;;;;;;;20.30;46.17;99831.50;7270405;19;153098;-81
2023/04/23 07:59:15;;;;;;;;;;;;;;;20.32;46.22;99824.38;7269642;19;153669;-84
2023/04/23 08:01:47;;;;;;;;;;;;;;;20.30;45.84;99825.88;7267711;19;152996;-84
2023/04/23 08:04:16;;;;;;;;;;;;;;;20.28;46.33;99826.16;7276504;19;152735;-84
2023/04/23 08:06:45;;;;;;;;;;;;;;;20.27;46.22;99823.69;7266889;19;154266;-84
2023/04/23 08:09:24;;;;;;;;;;;;;;;20.27;45.82;99826.50;7269450;19;153282;-84
2023/04/23 08:11:56;;;;;;;;;;;;;;;20.27;46.32;99827.31;7270079;19;153594;-81
2023/04/23 08:14:25;;;;;;;;;;;;;;;20.27;46.06;99827.31;7266828;19;153757;-84
2023/04/23 08:17:02;;;;;;;;;;;;;;;20.30;46.16;99831.50;7266377;19;152909;-84
2023/04/23 08:19:35;;;;;;;;;;;;;;;20.30;46.53;99831.50;7269200;19;154141;-82
2023/04/23 08:22:18;;;;;;;;;;;;;;;20.28;46.26;99826.16;7267023;19;152217;-85
2023/04/23 08:25:04;;;;;;;;;;;;;;;20.26;46.09;99834.09;7274186;19;153362;-84
2023/04/23 08:27:41;;;;;;;;;;;;;;;20.24;46.20;99830.81;7278094;19;155432;-82
2023/04/23 08:30:26;;;;;;;;;;;;;;;20.22;45.88;99824.69;7270844;19;154681;-82
2023/04/23 08:33:09;;;;;;;;;;;;;;;20.23;45.70;99819.91;7272007;19;156932;-84
2023/04/23 08:38:47;;;;;;;;;;;;;;;20.36;45.92;99825.34;7268387;19;152898;-84
2023/04/23 08:41:27;;;;;;;;;;;;;;;20.42;45.95;99820.38;7273425;19;154476;-84
2023/04/23 08:44:28;;;;;;;;;;;;;;;20.47;45.77;99820.22;7264064;19;154297;-82
2023/04/23 08:47:16;;;;;;;;;;;;;;;20.52;46.03;99817.22;7268933;19;153496;-83
2023/04/23 08:49:59;;;;;;;;;;;;;;;20.58;46.52;99817.88;7274798;19;152922;-84
2023/04/23 08:52:52;;;;;;;;;;;;;;;20.64;46.06;99810.88;7279310;19;154950;-84
2023/04/23 08:55:31;;;;;;;;;;;;;;;20.69;46.03;99817.16;7272502;19;153703;-84
2023/04/23 08:58:26;;;;;;;;;;;;;;;20.74;46.22;99816.97;7267182;19;152562;-82
2023/04/23 09:01:00;;;;;;;;;;;;;;;20.80;46.10;99812.00;7263417;19;153883;-84
2023/04/23 09:03:28;;;;;;;;;;;;;;;20.86;45.96;99807.81;7269962;19;153223;-84
2023/04/23 09:05:55;;;;;;;;;;;;;;;20.92;46.17;99811.25;7269459;19;154732;-84
2023/04/23 09:08:22;;;;;;;;;;;;;;;20.99;45.66;99805.91;7272803;19;153661;-84
2023/04/23 09:10:51;;;;;;;;;;;;;;;21.05;45.94;99807.38;7269604;19;154152;-84
2023/04/23 09:13:18;;;;;;;;;;;;;;;21.11;45.60;99804.03;7264188;19;154976;-84
2023/04/23 09:15:45;;;;;;;;;;;;;;;21.18;45.70;99797.91;7271453;19;153949;-85
2023/04/23 09:18:12;;;;;;;;;;;;;;;21.25;45.24;99806.63;7263343;19;154908;-84
2023/04/23 09:20:39;;;;;;;;;;;;;;;21.31;45.11;99799.63;7260308;19;153650;-84
2023/04/23 09:23:07;;;;;;;;;;;;;;;21.36;45.28;99799.41;7266213;19;153079;-85
2023/04/23 09:25:35;;;;;;;;;;;;;;;21.43;45.10;99801.69;7265588;19;154988;-84
2023/04/23 09:28:06;;;;;;;;;;;;;;;21.49;44.83;99801.13;7267463;19;153511;-85
2023/04/23 09:30:43;;;;;;;;;;;;;;;21.55;45.14;99798.94;7269067;19;153631;-84
2023/04/23 09:33:11;;;;;;;;;;;;;;;21.62;44.48;99799.22;7268131;19;156421;-84
2023/04/23 09:35:38;;;;;;;;;;;;;;;21.69;44.38;99799.50;7268231;19;152947;-84
2023/04/23 09:38:06;;;;;;;;;;;;;;;21.76;44.56;99796.13;7271415;19;157443;-84
2023/04/23 09:40:35;;;;;;;;;;;;;;;21.81;44.53;99790.28;7269258;19;154483;-84
2023/04/23 09:43:03;;;;;;;;;;;;;;;21.86;44.56;99796.50;7268704;19;154686;-85
2023/04/23 09:45:31;;;;;;;;;;;;;;;21.91;44.04;99790.69;7271189;19;154304;-84
2023/04/23 09:47:58;;;;;;;;;;;;;;;21.97;44.08;99785.69;7268453;19;154238;-84
2023/04/23 09:50:35;;;;;;;;;;;;;;;22.00;44.16;99790.63;7271427;19;153287;-84
2023/04/23 09:53:03;;;;;;;;;;;;;;;22.04;43.64;99792.38;7265789;19;153919;-84
2023/04/23 09:55:34;;;;;;;;;;;;;;;22.07;43.74;99793.69;7267045;19;152706;-84
2023/04/23 09:58:03;;;;;;;;;;;;;;;22.09;43.43;99792.16;7275588;19;153174;-84
2023/04/23 10:00:33;;;;;;;;;;;;;;;22.12;43.34;99788.66;7267565;19;154531;-85
2023/04/23 10:03:00;;;;;;;;;;;;;;;22.15;43.71;99784.34;7268880;19;153900;-84
2023/04/23 10:05:28;;;;;;;;;;;;;;;22.17;43.23;99780.00;7266047;19;153668;-85
2023/04/23 10:08:06;;;;;;;;;;;;;;;22.18;43.29;99778.84;7266242;19;153749;-83
2023/04/23 10:10:33;;;;;;;;;;;;;;;22.22;43.15;99783.75;7269820;19;153875;-83
2023/04/23 10:13:19;;;;;;;;;;;;;;;22.25;43.40;99783.09;7265493;19;155623;-83
2023/04/23 10:15:47;;;;;;;;;;;;;;;22.26;42.99;99779.09;7266296;19;154420;-83
2023/04/23 10:18:14;;;;;;;;;;;;;;;22.28;42.86;99783.19;7269076;19;154182;-82
2023/04/23 10:20:41;;;;;;;;;;;;;;;22.08;40.97;99772.81;7274076;19;152952;-82
2023/04/23 10:23:10;;;;;;;;;;;;;;;21.72;40.45;99782.75;7269779;19;154486;-82
2023/04/23 10:25:38;;;;;;;;;;;;;;;21.55;40.91;99774.47;7273891;19;153294;-82
2023/04/23 10:28:06;;;;;;;;;;;;;;;21.32;41.16;99778.78;7270868;19;153831;-82
2023/04/23 10:30:34;;;;;;;;;;;;;;;21.17;41.02;99770.97;7275819;19;153326;-82
2023/04/23 10:33:03;;;;;;;;;;;;;;;21.22;40.59;99767.97;7276397;19;155902;-82
2023/04/23 10:35:36;;;;;;;;;;;;;;;21.14;40.38;99766.03;7280670;19;153556;-84
2023/04/23 10:38:04;;;;;;;;;;;;;;;20.97;41.00;99764.16;7276836;19;153552;-84
2023/04/23 10:40:32;;;;;;;;;;;;;;;20.79;41.21;99766.25;7275610;19;155048;-84
2023/04/23 10:43:00;;;;;;;;;;;;;;;20.90;41.00;99763.03;7281000;19;153139;-84
2023/04/23 10:45:29;;;;;;;;;;;;;;;20.69;41.34;99765.78;7272682;19;155873;-83
2023/04/23 10:47:57;;;;;;;;;;;;;;;20.61;41.00;99770.31;7277168;19;152724;-83
2023/04/23 10:50:26;;;;;;;;;;;;;;;20.31;41.39;99763.81;7275918;19;153493;-82
2023/04/23 10:52:55;;;;;;;;;;;;;;;20.31;41.29;99760.19;7264750;19;154338;-82
2023/04/23 10:55:25;;;;;;;;;;;;;;;20.41;41.60;99752.22;7264697;19;152221;-83
2023/04/23 10:58:02;;;;;;;;;;;;;;;20.41;41.93;99752.22;7264949;19;153379;-83
2023/04/23 11:00:42;;;;;;;;;;;;;;;20.53;42.23;99747.91;7272311;19;153482;-83
2023/04/23 11:03:19;;;;;;;;;;;;;;;20.67;42.52;99749.28;7274956;19;153321;-83
2023/04/23 11:05:47;;;;;;;;;;;;;;;20.78;42.30;99746.91;7270422;19;153334;-84
2023/04/23 11:08:15;;;;;;;;;;;;;;;20.88;42.35;99754.13;7268051;19;155166;-84
2023/04/23 11:10:55;;;;;;;;;;;;;;;20.98;42.36;99756.56;7271785;19;154300;-83
2023/04/23 11:13:24;;;;;;;;;;;;;;;21.11;42.48;99749.84;7272959;19;153027;-83
2023/04/23 11:16:00;;;;;;;;;;;;;;;21.17;42.47;99749.31;7271023;19;153389;-81
2023/04/23 11:18:27;;;;;;;;;;;;;;;21.25;42.34;99744.81;7272071;19;151959;-84
2023/04/23 11:20:55;;;;;;;;;;;;;;;21.33;42.30;99749.53;7267385;19;156882;-82
2023/04/23 11:23:28;;;;;;;;;;;;;;;21.41;41.95;99750.63;7274074;19;154032;-83
2023/04/23 11:25:56;;;;;;;;;;;;;;;21.48;42.25;99748.09;7273230;19;152373;-81
2023/04/23 11:28:23;;;;;;;;;;;;;;;21.53;42.03;99739.47;7280622;19;153119;-81
2023/04/23 11:30:52;;;;;;;;;;;;;;;21.59;42.35;99740.88;7272890;19;153700;-81
2023/04/23 11:33:20;;;;;;;;;;;;;;;21.64;42.02;99743.47;7272617;19;155671;-82
2023/04/23 11:35:47;;;;;;;;;;;;;;;21.69;42.24;99740.44;7268163;19;153424;-83
2023/04/23 11:38:14;;;;;;;;;;;;;;;21.73;42.28;99744.22;7276207;19;154421;-83
2023/04/23 11:40:45;;;;;;;;;;;;;;;21.79;42.25;99740.03;7274537;19;155137;-82
2023/04/23 11:43:17;;;;;;;;;;;;;;;21.85;41.93;99735.00;7273330;19;153647;-83
2023/04/23 11:45:44;;;;;;;;;;;;;;;21.88;41.97;99735.13;7271478;19;157784;-84
2023/04/23 11:48:11;;;;;;;;;;;;;;;21.88;42.36;99732.31;7270342;19;154590;-83
2023/04/23 11:50:40;;;;;;;;;;;;;;;21.94;41.85;99736.56;7283565;19;152873;-83
2023/04/23 11:53:09;;;;;;;;;;;;;;;21.97;41.84;99737.88;7264501;19;153771;-83
2023/04/23 11:55:37;;;;;;;;;;;;;;;21.97;42.35;99738.72;7276059;19;153637;-84
2023/04/23 11:58:04;;;;;;;;;;;;;;;21.99;42.25;99741.97;7270219;19;154964;-83
2023/04/23 12:00:31;;;;;;;;;;;;;;;22.00;41.86;99740.81;7270638;19;154611;-82
2023/04/23 12:02:59;;;;;;;;;;;;;;;22.04;42.24;99741.75;7268623;19;153522;-83
2023/04/23 12:05:27;;;;;;;;;;;;;;;22.07;42.13;99741.09;7268507;19;153688;-84
2023/04/23 12:08:05;;;;;;;;;;;;;;;22.04;41.86;99743.75;7263533;19;153370;-83
2023/04/23 12:10:32;;;;;;;;;;;;;;;22.06;41.87;99741.41;7275025;19;152729;-83
2023/04/23 12:12:59;;;;;;;;;;;;;;;22.09;42.35;99740.72;7260178;19;152673;-81
2023/04/23 12:15:26;;;;;;;;;;;;;;;22.09;42.40;99737.91;7269899;19;153136;-83
2023/04/23 12:18:08;;;;;;;;;;;;;;;22.12;42.44;99742.84;7268605;19;154462;-84
2023/04/23 12:20:40;;;;;;;;;;;;;;;22.09;42.46;99747.16;7278470;19;154995;-82
2023/04/23 12:23:07;;;;;;;;;;;;;;;22.11;42.50;99744.84;7272627;19;152835;-83
2023/04/23 12:25:41;;;;;;;;;;;;;;;22.12;42.12;99742.84;7263028;19;154082;-83
2023/04/23 12:28:08;;;;;;;;;;;;;;;22.13;41.93;99741.66;7258326;19;153553;-84
2023/04/23 12:30:42;;;;;;;;;;;;;;;22.12;41.83;99734.41;7256646;19;152663;-83
2023/04/23 12:33:10;;;;;;;;;;;;;;;22.12;41.96;99743.66;7266778;19;153911;-83
2023/04/23 12:35:41;;;;;;;;;;;;;;;22.11;42.17;99733.59;7261607;19;153564;-83
2023/04/23 12:38:21;;;;;;;;;;;;;;;22.10;42.18;99737.56;7261214;19;153746;-83
2023/04/23 12:40:50;;;;;;;;;;;;;;;22.11;41.93;99741.19;7265061;19;153879;-83
2023/04/23 12:43:17;;;;;;;;;;;;;;;22.09;41.83;99738.72;7267982;19;152661;-83
2023/04/23 12:45:44;;;;;;;;;;;;;;;22.07;41.88;99743.06;7264386;19;154058;-83
2023/04/23 12:48:12;;;;;;;;;;;;;;;22.05;41.91;99745.41;7265188;19;154360;-84
2023/04/23 12:50:39;;;;;;;;;;;;;;;22.01;41.99;99736.00;7265404;19;154204;-83